sensor_id;sensor_type;location;lat;lon;timestamp;temperature;humidity
39315;DHT22;28703;44.412;11.918;2023-11-19T00:00:47;7.20;99.90
39315;DHT22;28703;44.412;11.918;2023-11-19T00:03:13;7.20;99.90
39315;DHT22;28703;44.412;11.918;2023-11-19T00:05:39;7.10;99.90
39315;DHT22;28703;44.412;11.918;2023-11-19T00:08:05;7.10;99.90
39315;DHT22;28703;44.412;11.918;2023-11-19T00:10:34;7.10;99.90
39315;DHT22;28703;44.412;11.918;2023-11-19T00:13:00;7.10;99.90
39315;DHT22;28703;44.412;11.918;2023-11-19T00:15:25;7.00;99.90
39315;DHT22;28703;44.412;11.918;2023-11-19T00:17:51;7.00;99.90
39315;DHT22;28703;44.412;11.918;2023-11-19T00:20:18;7.00;99.90
39315;DHT22;28703;44.412;11.918;2023-11-19T00:22:44;7.00;99.90
39315;DHT22;28703;44.412;11.918;2023-11-19T00:25:14;7.00;99.90
39315;DHT22;28703;44.412;11.918;2023-11-19T00:27:39;6.90;99.90
39315;DHT22;28703;44.412;11.918;2023-11-19T00:30:06;6.90;99.90
39315;DHT22;28703;44.412;11.918;2023-11-19T00:32:33;6.90;99.90
39315;DHT22;28703;44.412;11.918;2023-11-19T00:34:59;6.80;99.90
39315;DHT22;28703;44.412;11.918;2023-11-19T00:37:25;6.70;99.90
39315;DHT22;28703;44.412;11.918;2023-11-19T00:39:52;6.70;99.90
39315;DHT22;28703;44.412;11.918;2023-11-19T00:42:18;6.70;99.90
39315;DHT22;28703;44.412;11.918;2023-11-19T00:44:44;6.60;99.90
39315;DHT22;28703;44.412;11.918;2023-11-19T00:47:10;6.60;99.90
39315;DHT22;28703;44.412;11.918;2023-11-19T00:49:36;6.60;99.90
39315;DHT22;28703;44.412;11.918;2023-11-19T00:52:01;6.60;99.90
39315;DHT22;28703;44.412;11.918;2023-11-19T00:54:28;6.60;99.90
39315;DHT22;28703;44.412;11.918;2023-11-19T00:56:54;6.70;99.90
39315;DHT22;28703;44.412;11.918;2023-11-19T00:59:21;6.60;99.90
39315;DHT22;28703;44.412;11.918;2023-11-19T01:01:47;6.60;99.90
39315;DHT22;28703;44.412;11.918;2023-11-19T01:04:17;6.50;99.90
39315;DHT22;28703;44.412;11.918;2023-11-19T01:06:43;6.50;99.90
39315;DHT22;28703;44.412;11.918;2023-11-19T01:09:09;6.60;99.90
39315;DHT22;28703;44.412;11.918;2023-11-19T01:11:35;6.60;99.90
39315;DHT22;28703;44.412;11.918;2023-11-19T01:14:01;6.50;99.90
39315;DHT22;28703;44.412;11.918;2023-11-19T01:16:27;6.50;99.90
39315;DHT22;28703;44.412;11.918;2023-11-19T01:18:53;6.50;99.90
39315;DHT22;28703;44.412;11.918;2023-11-19T01:21:19;6.50;99.90
39315;DHT22;28703;44.412;11.918;2023-11-19T01:23:45;6.50;99.90
39315;DHT22;28703;44.412;11.918;2023-11-19T01:26:12;6.40;99.90
39315;DHT22;28703;44.412;11.918;2023-11-19T01:28:41;6.40;99.90
39315;DHT22;28703;44.412;11.918;2023-11-19T01:31:11;6.40;99.90
39315;DHT22;28703;44.412;11.918;2023-11-19T01:33:36;6.50;99.90
39315;DHT22;28703;44.412;11.918;2023-11-19T01:36:03;6.50;99.90
39315;DHT22;28703;44.412;11.918;2023-11-19T01:38:30;6.50;99.90
39315;DHT22;28703;44.412;11.918;2023-11-19T01:40:57;6.50;99.90
39315;DHT22;28703;44.412;11.918;2023-11-19T01:43:37;6.50;99.90
39315;DHT22;28703;44.412;11.918;2023-11-19T01:46:05;6.50;99.90
39315;DHT22;28703;44.412;11.918;2023-11-19T01:48:34;6.40;99.90
39315;DHT22;28703;44.412;11.918;2023-11-19T01:51:05;6.50;99.90
39315;DHT22;28703;44.412;11.918;2023-11-19T01:53:34;6.40;99.90
39315;DHT22;28703;44.412;11.918;2023-11-19T01:56:01;6.40;99.90
39315;DHT22;28703;44.412;11.918;2023-11-19T01:58:28;6.50;99.90
39315;DHT22;28703;44.412;11.918;2023-11-19T02:00:56;6.40;99.90
39315;DHT22;28703;44.412;11.918;2023-11-19T02:03:23;6.40;99.90
39315;DHT22;28703;44.412;11.918;2023-11-19T02:05:51;6.40;99.90
39315;DHT22;28703;44.412;11.918;2023-11-19T02:08:18;6.40;99.90
39315;DHT22;28703;44.412;11.918;2023-11-19T02:10:45;6.40;99.90
39315;DHT22;28703;44.412;11.918;2023-11-19T02:13:11;6.50;99.90
39315;DHT22;28703;44.412;11.918;2023-11-19T02:15:40;6.50;99.90
39315;DHT22;28703;44.412;11.918;2023-11-19T02:18:25;6.50;99.90
39315;DHT22;28703;44.412;11.918;2023-11-19T02:20:57;6.50;99.90
39315;DHT22;28703;44.412;11.918;2023-11-19T02:23:26;6.50;99.90
39315;DHT22;28703;44.412;11.918;2023-11-19T02:28:45;6.40;99.90
39315;DHT22;28703;44.412;11.918;2023-11-19T02:31:11;6.40;99.90
39315;DHT22;28703;44.412;11.918;2023-11-19T02:33:38;6.50;99.90
39315;DHT22;28703;44.412;11.918;2023-11-19T02:36:05;6.50;99.90
39315;DHT22;28703;44.412;11.918;2023-11-19T02:38:33;6.50;99.90
39315;DHT22;28703;44.412;11.918;2023-11-19T02:40:59;6.60;99.90
39315;DHT22;28703;44.412;11.918;2023-11-19T02:43:27;6.60;99.90
39315;DHT22;28703;44.412;11.918;2023-11-19T02:45:53;6.50;99.90
39315;DHT22;28703;44.412;11.918;2023-11-19T02:48:21;6.60;99.90
39315;DHT22;28703;44.412;11.918;2023-11-19T02:50:47;6.60;99.90
39315;DHT22;28703;44.412;11.918;2023-11-19T02:53:13;6.60;99.90
39315;DHT22;28703;44.412;11.918;2023-11-19T02:55:39;6.60;99.90
39315;DHT22;28703;44.412;11.918;2023-11-19T02:58:06;6.60;99.90
39315;DHT22;28703;44.412;11.918;2023-11-19T03:00:45;6.60;99.90
39315;DHT22;28703;44.412;11.918;2023-11-19T03:03:17;6.60;99.90
39315;DHT22;28703;44.412;11.918;2023-11-19T03:05:49;6.60;99.90
39315;DHT22;28703;44.412;11.918;2023-11-19T03:08:15;6.70;99.90
39315;DHT22;28703;44.412;11.918;2023-11-19T03:10:42;6.60;99.90
39315;DHT22;28703;44.412;11.918;2023-11-19T03:13:11;6.60;99.90
39315;DHT22;28703;44.412;11.918;2023-11-19T03:15:41;6.50;99.90
39315;DHT22;28703;44.412;11.918;2023-11-19T03:18:07;6.50;99.90
39315;DHT22;28703;44.412;11.918;2023-11-19T03:20:34;6.50;99.90
39315;DHT22;28703;44.412;11.918;2023-11-19T03:23:00;6.50;99.90
39315;DHT22;28703;44.412;11.918;2023-11-19T03:25:27;6.50;99.90
39315;DHT22;28703;44.412;11.918;2023-11-19T03:27:59;6.50;99.90
39315;DHT22;28703;44.412;11.918;2023-11-19T03:30:26;6.50;99.90
39315;DHT22;28703;44.412;11.918;2023-11-19T03:32:52;6.40;99.90
39315;DHT22;28703;44.412;11.918;2023-11-19T03:35:17;6.40;99.90
39315;DHT22;28703;44.412;11.918;2023-11-19T03:37:43;6.40;99.90
39315;DHT22;28703;44.412;11.918;2023-11-19T03:40:09;6.30;99.90
39315;DHT22;28703;44.412;11.918;2023-11-19T03:42:36;6.30;99.90
39315;DHT22;28703;44.412;11.918;2023-11-19T03:45:02;6.30;99.90
39315;DHT22;28703;44.412;11.918;2023-11-19T03:47:29;6.30;99.90
39315;DHT22;28703;44.412;11.918;2023-11-19T03:49:55;6.20;99.90
39315;DHT22;28703;44.412;11.918;2023-11-19T03:52:21;6.20;99.90
39315;DHT22;28703;44.412;11.918;2023-11-19T03:54:47;6.10;99.90
39315;DHT22;28703;44.412;11.918;2023-11-19T03:57:13;6.00;99.90
39315;DHT22;28703;44.412;11.918;2023-11-19T03:59:39;6.00;99.90
39315;DHT22;28703;44.412;11.918;2023-11-19T04:02:05;6.00;99.90
39315;DHT22;28703;44.412;11.918;2023-11-19T04:04:32;6.00;99.90
39315;DHT22;28703;44.412;11.918;2023-11-19T04:06:58;6.00;99.90
39315;DHT22;28703;44.412;11.918;2023-11-19T04:09:26;6.00;99.90
39315;DHT22;28703;44.412;11.918;2023-11-19T04:11:52;5.90;99.90
39315;DHT22;28703;44.412;11.918;2023-11-19T04:14:18;6.00;99.90
39315;DHT22;28703;44.412;11.918;2023-11-19T04:16:44;5.90;99.90
39315;DHT22;28703;44.412;11.918;2023-11-19T04:19:13;5.90;99.90
39315;DHT22;28703;44.412;11.918;2023-11-19T04:21:42;5.90;99.90
39315;DHT22;28703;44.412;11.918;2023-11-19T04:24:11;5.90;99.90
39315;DHT22;28703;44.412;11.918;2023-11-19T04:26:44;5.90;99.90
39315;DHT22;28703;44.412;11.918;2023-11-19T04:29:15;5.90;99.90
39315;DHT22;28703;44.412;11.918;2023-11-19T04:31:43;5.90;99.90
39315;DHT22;28703;44.412;11.918;2023-11-19T04:34:12;5.90;99.90
39315;DHT22;28703;44.412;11.918;2023-11-19T04:36:38;5.90;99.90
39315;DHT22;28703;44.412;11.918;2023-11-19T04:39:04;5.90;99.90
39315;DHT22;28703;44.412;11.918;2023-11-19T04:41:51;6.00;99.90
39315;DHT22;28703;44.412;11.918;2023-11-19T04:44:20;6.00;99.90
39315;DHT22;28703;44.412;11.918;2023-11-19T04:46:46;6.00;99.90
39315;DHT22;28703;44.412;11.918;2023-11-19T04:49:12;6.00;99.90
39315;DHT22;28703;44.412;11.918;2023-11-19T04:51:42;6.00;99.90
39315;DHT22;28703;44.412;11.918;2023-11-19T04:54:11;6.10;99.90
39315;DHT22;28703;44.412;11.918;2023-11-19T04:56:37;6.10;99.90
39315;DHT22;28703;44.412;11.918;2023-11-19T04:59:03;6.00;99.90
39315;DHT22;28703;44.412;11.918;2023-11-19T05:01:31;6.10;99.90
39315;DHT22;28703;44.412;11.918;2023-11-19T05:03:57;6.10;99.90
39315;DHT22;28703;44.412;11.918;2023-11-19T05:06:27;6.10;99.90
39315;DHT22;28703;44.412;11.918;2023-11-19T05:08:54;6.20;99.90
39315;DHT22;28703;44.412;11.918;2023-11-19T05:11:20;6.20;99.90
39315;DHT22;28703;44.412;11.918;2023-11-19T05:13:45;6.20;99.90
39315;DHT22;28703;44.412;11.918;2023-11-19T05:16:12;6.20;99.90
39315;DHT22;28703;44.412;11.918;2023-11-19T05:18:41;6.20;99.90
39315;DHT22;28703;44.412;11.918;2023-11-19T05:21:07;6.10;99.90
39315;DHT22;28703;44.412;11.918;2023-11-19T05:23:34;6.10;99.90
39315;DHT22;28703;44.412;11.918;2023-11-19T05:26:01;6.10;99.90
39315;DHT22;28703;44.412;11.918;2023-11-19T05:28:27;6.00;99.90
39315;DHT22;28703;44.412;11.918;2023-11-19T05:30:54;6.00;99.90
39315;DHT22;28703;44.412;11.918;2023-11-19T05:33:19;5.90;99.90
39315;DHT22;28703;44.412;11.918;2023-11-19T05:35:45;5.90;99.90
39315;DHT22;28703;44.412;11.918;2023-11-19T05:38:11;5.90;99.90
39315;DHT22;28703;44.412;11.918;2023-11-19T05:40:37;6.00;99.90
39315;DHT22;28703;44.412;11.918;2023-11-19T05:43:04;6.00;99.90
39315;DHT22;28703;44.412;11.918;2023-11-19T05:45:31;5.90;99.90
39315;DHT22;28703;44.412;11.918;2023-11-19T05:47:57;5.90;99.90
39315;DHT22;28703;44.412;11.918;2023-11-19T05:50:23;5.90;99.90
39315;DHT22;28703;44.412;11.918;2023-11-19T05:52:49;5.80;99.90
39315;DHT22;28703;44.412;11.918;2023-11-19T05:55:15;5.90;99.90
39315;DHT22;28703;44.412;11.918;2023-11-19T05:57:41;5.90;99.90
39315;DHT22;28703;44.412;11.918;2023-11-19T06:00:08;5.80;99.90
39315;DHT22;28703;44.412;11.918;2023-11-19T06:02:39;5.90;99.90
39315;DHT22;28703;44.412;11.918;2023-11-19T06:05:05;5.80;99.90
39315;DHT22;28703;44.412;11.918;2023-11-19T06:07:35;5.80;99.90
39315;DHT22;28703;44.412;11.918;2023-11-19T06:10:02;5.80;99.90
39315;DHT22;28703;44.412;11.918;2023-11-19T06:12:31;5.70;99.90
39315;DHT22;28703;44.412;11.918;2023-11-19T06:14:57;5.60;99.90
39315;DHT22;28703;44.412;11.918;2023-11-19T06:17:23;5.60;99.90
39315;DHT22;28703;44.412;11.918;2023-11-19T06:19:49;5.60;99.90
39315;DHT22;28703;44.412;11.918;2023-11-19T06:22:14;5.60;99.90
39315;DHT22;28703;44.412;11.918;2023-11-19T06:24:40;5.60;99.90
39315;DHT22;28703;44.412;11.918;2023-11-19T06:27:06;5.50;99.90
39315;DHT22;28703;44.412;11.918;2023-11-19T06:29:32;5.50;99.90
39315;DHT22;28703;44.412;11.918;2023-11-19T06:31:58;5.60;99.90
39315;DHT22;28703;44.412;11.918;2023-11-19T06:34:23;5.50;99.90
39315;DHT22;28703;44.412;11.918;2023-11-19T06:36:49;5.50;99.90
39315;DHT22;28703;44.412;11.918;2023-11-19T06:39:15;5.50;99.90
39315;DHT22;28703;44.412;11.918;2023-11-19T06:41:47;5.50;99.90
39315;DHT22;28703;44.412;11.918;2023-11-19T06:44:13;5.60;99.90
39315;DHT22;28703;44.412;11.918;2023-11-19T06:46:39;5.60;99.90
39315;DHT22;28703;44.412;11.918;2023-11-19T06:49:05;5.50;99.90
39315;DHT22;28703;44.412;11.918;2023-11-19T06:51:33;5.50;99.90
39315;DHT22;28703;44.412;11.918;2023-11-19T06:53:59;5.60;99.90
39315;DHT22;28703;44.412;11.918;2023-11-19T06:56:25;5.60;99.90
39315;DHT22;28703;44.412;11.918;2023-11-19T06:58:51;5.60;99.90
39315;DHT22;28703;44.412;11.918;2023-11-19T07:01:18;5.70;99.90
39315;DHT22;28703;44.412;11.918;2023-11-19T07:03:47;5.70;99.90
39315;DHT22;28703;44.412;11.918;2023-11-19T07:06:13;5.80;99.90
39315;DHT22;28703;44.412;11.918;2023-11-19T07:08:42;5.80;99.90
39315;DHT22;28703;44.412;11.918;2023-11-19T07:11:12;5.90;99.90
39315;DHT22;28703;44.412;11.918;2023-11-19T07:13:39;6.00;99.90
39315;DHT22;28703;44.412;11.918;2023-11-19T07:16:07;6.00;99.90
39315;DHT22;28703;44.412;11.918;2023-11-19T07:18:35;6.10;99.90
39315;DHT22;28703;44.412;11.918;2023-11-19T07:21:01;6.20;99.90
39315;DHT22;28703;44.412;11.918;2023-11-19T07:23:28;6.30;99.90
39315;DHT22;28703;44.412;11.918;2023-11-19T07:25:54;6.30;99.90
39315;DHT22;28703;44.412;11.918;2023-11-19T07:28:20;6.40;99.90
39315;DHT22;28703;44.412;11.918;2023-11-19T07:30:45;6.40;99.90
39315;DHT22;28703;44.412;11.918;2023-11-19T07:33:11;6.50;99.90
39315;DHT22;28703;44.412;11.918;2023-11-19T07:35:39;6.60;99.90
39315;DHT22;28703;44.412;11.918;2023-11-19T07:38:08;6.60;99.90
39315;DHT22;28703;44.412;11.918;2023-11-19T07:40:33;6.70;99.90
39315;DHT22;28703;44.412;11.918;2023-11-19T07:42:59;6.80;99.90
39315;DHT22;28703;44.412;11.918;2023-11-19T07:45:25;6.80;99.90
39315;DHT22;28703;44.412;11.918;2023-11-19T07:47:53;6.90;99.90
39315;DHT22;28703;44.412;11.918;2023-11-19T07:50:20;7.00;99.90
39315;DHT22;28703;44.412;11.918;2023-11-19T07:52:46;7.00;99.90
39315;DHT22;28703;44.412;11.918;2023-11-19T07:55:11;7.10;99.90
39315;DHT22;28703;44.412;11.918;2023-11-19T07:57:37;7.10;99.90
39315;DHT22;28703;44.412;11.918;2023-11-19T08:00:04;7.30;99.90
39315;DHT22;28703;44.412;11.918;2023-11-19T08:02:38;7.40;99.90
39315;DHT22;28703;44.412;11.918;2023-11-19T08:05:04;7.50;99.90
39315;DHT22;28703;44.412;11.918;2023-11-19T08:07:31;7.50;99.90
39315;DHT22;28703;44.412;11.918;2023-11-19T08:09:57;7.60;99.90
39315;DHT22;28703;44.412;11.918;2023-11-19T08:12:23;7.70;99.90
39315;DHT22;28703;44.412;11.918;2023-11-19T08:14:48;7.80;99.90
39315;DHT22;28703;44.412;11.918;2023-11-19T08:17:14;7.90;99.90
39315;DHT22;28703;44.412;11.918;2023-11-19T08:19:41;8.00;99.90
39315;DHT22;28703;44.412;11.918;2023-11-19T08:22:07;8.10;99.90
39315;DHT22;28703;44.412;11.918;2023-11-19T08:24:34;8.20;99.90
39315;DHT22;28703;44.412;11.918;2023-11-19T08:27:00;8.30;99.90
39315;DHT22;28703;44.412;11.918;2023-11-19T08:29:26;8.30;99.90
39315;DHT22;28703;44.412;11.918;2023-11-19T08:31:53;8.40;99.90
39315;DHT22;28703;44.412;11.918;2023-11-19T08:34:19;8.50;99.90
39315;DHT22;28703;44.412;11.918;2023-11-19T08:36:45;8.60;99.90
39315;DHT22;28703;44.412;11.918;2023-11-19T08:39:10;8.70;99.90
39315;DHT22;28703;44.412;11.918;2023-11-19T08:41:36;8.70;99.90
39315;DHT22;28703;44.412;11.918;2023-11-19T08:44:03;8.80;99.90
39315;DHT22;28703;44.412;11.918;2023-11-19T08:46:29;8.90;99.90
39315;DHT22;28703;44.412;11.918;2023-11-19T08:48:55;9.00;99.90
39315;DHT22;28703;44.412;11.918;2023-11-19T08:51:24;9.10;99.90
39315;DHT22;28703;44.412;11.918;2023-11-19T08:53:50;9.20;99.90
39315;DHT22;28703;44.412;11.918;2023-11-19T08:56:16;9.20;99.90
39315;DHT22;28703;44.412;11.918;2023-11-19T08:58:42;9.30;99.90
39315;DHT22;28703;44.412;11.918;2023-11-19T09:01:07;9.40;99.90
39315;DHT22;28703;44.412;11.918;2023-11-19T09:03:35;9.50;99.90
39315;DHT22;28703;44.412;11.918;2023-11-19T09:06:02;9.50;99.90
39315;DHT22;28703;44.412;11.918;2023-11-19T09:08:28;9.60;99.90
39315;DHT22;28703;44.412;11.918;2023-11-19T09:10:54;9.60;99.90
39315;DHT22;28703;44.412;11.918;2023-11-19T09:13:20;9.70;99.90
39315;DHT22;28703;44.412;11.918;2023-11-19T09:15:46;9.80;99.90
39315;DHT22;28703;44.412;11.918;2023-11-19T09:18:12;9.80;99.90
39315;DHT22;28703;44.412;11.918;2023-11-19T09:20:37;9.90;99.90
39315;DHT22;28703;44.412;11.918;2023-11-19T09:23:05;10.00;99.90
39315;DHT22;28703;44.412;11.918;2023-11-19T09:25:31;10.00;99.90
39315;DHT22;28703;44.412;11.918;2023-11-19T09:27:57;10.10;99.90
39315;DHT22;28703;44.412;11.918;2023-11-19T09:30:23;10.10;99.90
39315;DHT22;28703;44.412;11.918;2023-11-19T09:32:49;10.20;99.90
39315;DHT22;28703;44.412;11.918;2023-11-19T09:35:15;10.20;99.60
39315;DHT22;28703;44.412;11.918;2023-11-19T09:37:42;10.30;99.70
39315;DHT22;28703;44.412;11.918;2023-11-19T09:40:08;10.40;99.50
39315;DHT22;28703;44.412;11.918;2023-11-19T09:42:44;10.40;99.30
39315;DHT22;28703;44.412;11.918;2023-11-19T09:45:14;10.50;99.00
39315;DHT22;28703;44.412;11.918;2023-11-19T09:47:45;10.50;98.10
39315;DHT22;28703;44.412;11.918;2023-11-19T09:50:16;10.60;98.00
39315;DHT22;28703;44.412;11.918;2023-11-19T09:52:44;10.60;97.30
39315;DHT22;28703;44.412;11.918;2023-11-19T09:55:11;10.70;97.60
39315;DHT22;28703;44.412;11.918;2023-11-19T09:57:39;10.70;96.60
39315;DHT22;28703;44.412;11.918;2023-11-19T10:00:06;10.80;96.90
39315;DHT22;28703;44.412;11.918;2023-11-19T10:02:34;10.80;97.10
39315;DHT22;28703;44.412;11.918;2023-11-19T10:05:06;10.90;97.30
39315;DHT22;28703;44.412;11.918;2023-11-19T10:07:32;11.00;97.20
39315;DHT22;28703;44.412;11.918;2023-11-19T10:10:02;11.00;96.80
39315;DHT22;28703;44.412;11.918;2023-11-19T10:12:31;11.10;96.70
39315;DHT22;28703;44.412;11.918;2023-11-19T10:14:58;11.20;96.60
39315;DHT22;28703;44.412;11.918;2023-11-19T10:17:36;11.20;95.90
39315;DHT22;28703;44.412;11.918;2023-11-19T10:20:02;11.20;96.20
39315;DHT22;28703;44.412;11.918;2023-11-19T10:22:30;11.20;95.40
39315;DHT22;28703;44.412;11.918;2023-11-19T10:24:55;11.30;95.80
39315;DHT22;28703;44.412;11.918;2023-11-19T10:27:24;11.30;95.70
39315;DHT22;28703;44.412;11.918;2023-11-19T10:29:51;11.40;95.80
39315;DHT22;28703;44.412;11.918;2023-11-19T10:32:16;11.50;95.80
39315;DHT22;28703;44.412;11.918;2023-11-19T10:34:42;11.60;95.90
39315;DHT22;28703;44.412;11.918;2023-11-19T10:37:10;11.60;95.90
39315;DHT22;28703;44.412;11.918;2023-11-19T10:39:53;11.70;95.80
39315;DHT22;28703;44.412;11.918;2023-11-19T10:42:20;11.70;95.80
39315;DHT22;28703;44.412;11.918;2023-11-19T10:44:46;11.70;95.90
39315;DHT22;28703;44.412;11.918;2023-11-19T10:47:13;11.70;95.60
39315;DHT22;28703;44.412;11.918;2023-11-19T10:49:39;11.80;95.70
39315;DHT22;28703;44.412;11.918;2023-11-19T10:52:08;11.80;95.50
39315;DHT22;28703;44.412;11.918;2023-11-19T10:54:35;11.90;95.80
39315;DHT22;28703;44.412;11.918;2023-11-19T10:57:02;11.90;95.30
39315;DHT22;28703;44.412;11.918;2023-11-19T10:59:31;12.00;95.80
39315;DHT22;28703;44.412;11.918;2023-11-19T11:01:57;12.00;95.80
39315;DHT22;28703;44.412;11.918;2023-11-19T11:04:28;12.00;95.40
39315;DHT22;28703;44.412;11.918;2023-11-19T11:06:58;12.10;95.20
39315;DHT22;28703;44.412;11.918;2023-11-19T11:09:29;12.10;95.40
39315;DHT22;28703;44.412;11.918;2023-11-19T11:11:55;12.20;95.60
39315;DHT22;28703;44.412;11.918;2023-11-19T11:14:24;12.30;95.60
39315;DHT22;28703;44.412;11.918;2023-11-19T11:16:53;12.30;95.70
39315;DHT22;28703;44.412;11.918;2023-11-19T11:19:19;12.30;95.40
39315;DHT22;28703;44.412;11.918;2023-11-19T11:21:50;12.40;95.40
39315;DHT22;28703;44.412;11.918;2023-11-19T11:29:53;12.60;95.50
39315;DHT22;28703;44.412;11.918;2023-11-19T11:35:44;12.70;95.10
39315;DHT22;28703;44.412;11.918;2023-11-19T11:38:14;12.70;94.90
39315;DHT22;28703;44.412;11.918;2023-11-19T11:40:40;12.80;95.00
39315;DHT22;28703;44.412;11.918;2023-11-19T11:43:43;12.80;94.80
39315;DHT22;28703;44.412;11.918;2023-11-19T11:46:09;12.90;94.70
39315;DHT22;28703;44.412;11.918;2023-11-19T11:48:55;13.00;94.70
39315;DHT22;28703;44.412;11.918;2023-11-19T11:57:13;13.10;94.70
39315;DHT22;28703;44.412;11.918;2023-11-19T12:02:08;13.00;94.10
39315;DHT22;28703;44.412;11.918;2023-11-19T12:04:36;13.00;94.50
39315;DHT22;28703;44.412;11.918;2023-11-19T12:07:18;13.10;94.60
39315;DHT22;28703;44.412;11.918;2023-11-19T12:09:52;13.10;94.60
39315;DHT22;28703;44.412;11.918;2023-11-19T12:12:26;13.10;94.70
39315;DHT22;28703;44.412;11.918;2023-11-19T12:20:05;13.30;94.60
39315;DHT22;28703;44.412;11.918;2023-11-19T12:22:42;13.30;94.60
39315;DHT22;28703;44.412;11.918;2023-11-19T12:25:09;13.30;94.70
39315;DHT22;28703;44.412;11.918;2023-11-19T12:27:36;13.30;94.70
39315;DHT22;28703;44.412;11.918;2023-11-19T12:30:03;13.40;95.30
39315;DHT22;28703;44.412;11.918;2023-11-19T12:35:06;13.40;95.10
39315;DHT22;28703;44.412;11.918;2023-11-19T12:37:32;13.40;95.30
39315;DHT22;28703;44.412;11.918;2023-11-19T12:39:58;13.40;95.40
39315;DHT22;28703;44.412;11.918;2023-11-19T12:42:37;13.40;95.40
39315;DHT22;28703;44.412;11.918;2023-11-19T12:45:05;13.50;95.50
39315;DHT22;28703;44.412;11.918;2023-11-19T12:47:31;13.40;95.50
39315;DHT22;28703;44.412;11.918;2023-11-19T12:49:57;13.40;95.30
39315;DHT22;28703;44.412;11.918;2023-11-19T12:52:23;13.40;95.40
39315;DHT22;28703;44.412;11.918;2023-11-19T12:54:49;13.40;95.40
39315;DHT22;28703;44.412;11.918;2023-11-19T12:57:15;13.40;95.40
39315;DHT22;28703;44.412;11.918;2023-11-19T12:59:41;13.40;95.30
39315;DHT22;28703;44.412;11.918;2023-11-19T13:02:08;13.40;95.30
39315;DHT22;28703;44.412;11.918;2023-11-19T13:04:34;13.40;95.30
39315;DHT22;28703;44.412;11.918;2023-11-19T13:07:00;13.50;95.40
39315;DHT22;28703;44.412;11.918;2023-11-19T13:09:29;13.60;95.40
39315;DHT22;28703;44.412;11.918;2023-11-19T13:11:56;13.60;95.50
39315;DHT22;28703;44.412;11.918;2023-11-19T13:14:22;13.60;95.40
39315;DHT22;28703;44.412;11.918;2023-11-19T13:16:48;13.70;95.40
39315;DHT22;28703;44.412;11.918;2023-11-19T13:19:15;13.70;95.30
39315;DHT22;28703;44.412;11.918;2023-11-19T13:21:45;13.70;95.10
39315;DHT22;28703;44.412;11.918;2023-11-19T13:24:14;13.80;95.30
39315;DHT22;28703;44.412;11.918;2023-11-19T13:26:40;13.90;95.20
39315;DHT22;28703;44.412;11.918;2023-11-19T13:29:06;13.90;94.70
39315;DHT22;28703;44.412;11.918;2023-11-19T13:31:31;13.90;94.80
39315;DHT22;28703;44.412;11.918;2023-11-19T13:33:58;14.00;94.60
39315;DHT22;28703;44.412;11.918;2023-11-19T13:36:24;14.00;94.90
39315;DHT22;28703;44.412;11.918;2023-11-19T13:38:51;14.00;94.80
39315;DHT22;28703;44.412;11.918;2023-11-19T13:41:27;14.10;94.90
39315;DHT22;28703;44.412;11.918;2023-11-19T13:43:53;14.10;94.70
39315;DHT22;28703;44.412;11.918;2023-11-19T13:46:20;14.20;94.80
39315;DHT22;28703;44.412;11.918;2023-11-19T13:48:46;14.20;94.90
39315;DHT22;28703;44.412;11.918;2023-11-19T13:51:12;14.30;94.30
39315;DHT22;28703;44.412;11.918;2023-11-19T13:53:38;14.40;94.20
39315;DHT22;28703;44.412;11.918;2023-11-19T13:56:04;14.50;94.10
39315;DHT22;28703;44.412;11.918;2023-11-19T13:58:29;14.50;94.00
39315;DHT22;28703;44.412;11.918;2023-11-19T14:00:55;14.60;94.50
39315;DHT22;28703;44.412;11.918;2023-11-19T14:03:21;14.60;94.20
39315;DHT22;28703;44.412;11.918;2023-11-19T14:05:47;14.70;94.50
39315;DHT22;28703;44.412;11.918;2023-11-19T14:08:15;14.60;94.40
39315;DHT22;28703;44.412;11.918;2023-11-19T14:10:40;14.90;94.60
39315;DHT22;28703;44.412;11.918;2023-11-19T14:13:07;15.00;94.10
39315;DHT22;28703;44.412;11.918;2023-11-19T14:15:33;15.40;93.40
39315;DHT22;28703;44.412;11.918;2023-11-19T14:17:59;15.70;93.50
39315;DHT22;28703;44.412;11.918;2023-11-19T14:20:24;15.70;93.20
39315;DHT22;28703;44.412;11.918;2023-11-19T14:22:51;16.20;93.30
39315;DHT22;28703;44.412;11.918;2023-11-19T14:25:18;16.30;92.80
39315;DHT22;28703;44.412;11.918;2023-11-19T14:27:45;16.70;93.00
39315;DHT22;28703;44.412;11.918;2023-11-19T14:30:14;17.50;92.30
39315;DHT22;28703;44.412;11.918;2023-11-19T14:32:41;18.20;91.40
39315;DHT22;28703;44.412;11.918;2023-11-19T14:35:11;18.80;91.20
39315;DHT22;28703;44.412;11.918;2023-11-19T14:37:38;19.50;90.10
39315;DHT22;28703;44.412;11.918;2023-11-19T14:40:04;20.00;88.70
39315;DHT22;28703;44.412;11.918;2023-11-19T14:42:31;20.90;86.50
39315;DHT22;28703;44.412;11.918;2023-11-19T14:44:57;22.00;84.50
39315;DHT22;28703;44.412;11.918;2023-11-19T14:47:23;23.10;83.40
39315;DHT22;28703;44.412;11.918;2023-11-19T14:49:49;23.80;82.10
39315;DHT22;28703;44.412;11.918;2023-11-19T14:52:15;24.30;79.90
39315;DHT22;28703;44.412;11.918;2023-11-19T14:54:40;24.50;79.30
39315;DHT22;28703;44.412;11.918;2023-11-19T14:57:07;24.40;79.20
39315;DHT22;28703;44.412;11.918;2023-11-19T14:59:36;24.10;78.90
39315;DHT22;28703;44.412;11.918;2023-11-19T15:02:03;23.30;79.60
39315;DHT22;28703;44.412;11.918;2023-11-19T15:04:29;22.00;80.90
39315;DHT22;28703;44.412;11.918;2023-11-19T15:06:58;20.80;82.00
39315;DHT22;28703;44.412;11.918;2023-11-19T15:09:24;19.80;83.20
39315;DHT22;28703;44.412;11.918;2023-11-19T15:11:50;19.00;85.50
39315;DHT22;28703;44.412;11.918;2023-11-19T15:14:16;18.30;87.40
39315;DHT22;28703;44.412;11.918;2023-11-19T15:16:46;17.80;88.90
39315;DHT22;28703;44.412;11.918;2023-11-19T15:19:12;17.20;90.20
39315;DHT22;28703;44.412;11.918;2023-11-19T15:21:40;16.70;90.70
39315;DHT22;28703;44.412;11.918;2023-11-19T15:24:06;16.40;91.70
39315;DHT22;28703;44.412;11.918;2023-11-19T15:26:36;16.00;92.10
39315;DHT22;28703;44.412;11.918;2023-11-19T15:29:04;15.70;92.40
39315;DHT22;28703;44.412;11.918;2023-11-19T15:31:30;15.40;92.60
39315;DHT22;28703;44.412;11.918;2023-11-19T15:33:56;15.10;93.10
39315;DHT22;28703;44.412;11.918;2023-11-19T15:36:22;14.90;93.50
39315;DHT22;28703;44.412;11.918;2023-11-19T15:38:48;14.60;93.90
39315;DHT22;28703;44.412;11.918;2023-11-19T15:41:14;14.40;94.40
39315;DHT22;28703;44.412;11.918;2023-11-19T15:43:41;14.20;94.70
39315;DHT22;28703;44.412;11.918;2023-11-19T15:46:08;14.00;95.10
39315;DHT22;28703;44.412;11.918;2023-11-19T15:48:34;13.80;94.90
39315;DHT22;28703;44.412;11.918;2023-11-19T15:51:00;13.70;95.20
39315;DHT22;28703;44.412;11.918;2023-11-19T15:53:27;13.50;95.70